sensor_id;sensor_type;location;lat;lon;timestamp;temperature;humidity
44063;DHT22;29727;47.606;19.130;2022-10-16T00:00:31;17.30;68.60
44063;DHT22;29727;47.606;19.130;2022-10-16T00:02:57;17.30;68.90
44063;DHT22;29727;47.606;19.130;2022-10-16T00:07:48;17.30;67.80
44063;DHT22;29727;47.606;19.130;2022-10-16T00:10:14;17.30;68.40
44063;DHT22;29727;47.606;19.130;2022-10-16T00:12:39;17.20;68.30
44063;DHT22;29727;47.606;19.130;2022-10-16T00:15:05;17.30;68.40
44063;DHT22;29727;47.606;19.130;2022-10-16T00:17:31;17.20;68.50
44063;DHT22;29727;47.606;19.130;2022-10-16T00:19:57;17.20;68.50
44063;DHT22;29727;47.606;19.130;2022-10-16T00:22:23;17.20;68.70
44063;DHT22;29727;47.606;19.130;2022-10-16T00:24:49;17.20;68.70
44063;DHT22;29727;47.606;19.130;2022-10-16T00:27:15;17.20;68.70
44063;DHT22;29727;47.606;19.130;2022-10-16T00:32:06;17.20;68.20
44063;DHT22;29727;47.606;19.130;2022-10-16T00:34:32;17.20;68.90
44063;DHT22;29727;47.606;19.130;2022-10-16T00:36:57;17.20;68.90
44063;DHT22;29727;47.606;19.130;2022-10-16T00:39:23;17.20;69.10
44063;DHT22;29727;47.606;19.130;2022-10-16T00:41:53;17.20;69.40
44063;DHT22;29727;47.606;19.130;2022-10-16T00:47:11;17.10;69.10
44063;DHT22;29727;47.606;19.130;2022-10-16T00:49:38;17.10;69.70
44063;DHT22;29727;47.606;19.130;2022-10-16T00:52:05;17.10;69.70
44063;DHT22;29727;47.606;19.130;2022-10-16T00:54:32;17.10;69.10
44063;DHT22;29727;47.606;19.130;2022-10-16T00:57:04;17.10;69.60
44063;DHT22;29727;47.606;19.130;2022-10-16T00:59:36;17.10;69.40
44063;DHT22;29727;47.606;19.130;2022-10-16T01:02:04;17.10;69.10
44063;DHT22;29727;47.606;19.130;2022-10-16T01:04:34;17.10;69.40
44063;DHT22;29727;47.606;19.130;2022-10-16T01:07:17;17.10;69.40
44063;DHT22;29727;47.606;19.130;2022-10-16T01:20:33;17.10;69.70
44063;DHT22;29727;47.606;19.130;2022-10-16T01:28:29;17.00;70.00
44063;DHT22;29727;47.606;19.130;2022-10-16T01:30:58;17.00;70.20
44063;DHT22;29727;47.606;19.130;2022-10-16T01:33:37;17.00;70.70
44063;DHT22;29727;47.606;19.130;2022-10-16T01:36:14;17.00;70.00
44063;DHT22;29727;47.606;19.130;2022-10-16T01:38:43;17.00;70.10
44063;DHT22;29727;47.606;19.130;2022-10-16T01:41:36;16.90;70.00
44063;DHT22;29727;47.606;19.130;2022-10-16T01:44:04;16.90;70.30
44063;DHT22;29727;47.606;19.130;2022-10-16T01:46:32;16.80;70.10
44063;DHT22;29727;47.606;19.130;2022-10-16T01:49:00;16.80;70.00
44063;DHT22;29727;47.606;19.130;2022-10-16T01:51:28;16.80;70.50
44063;DHT22;29727;47.606;19.130;2022-10-16T01:53:58;16.70;70.30
44063;DHT22;29727;47.606;19.130;2022-10-16T01:56:25;16.70;70.90
44063;DHT22;29727;47.606;19.130;2022-10-16T01:58:55;16.70;70.80
44063;DHT22;29727;47.606;19.130;2022-10-16T02:01:25;16.70;70.80
44063;DHT22;29727;47.606;19.130;2022-10-16T02:03:54;16.60;70.70
44063;DHT22;29727;47.606;19.130;2022-10-16T02:06:22;16.60;70.80
44063;DHT22;29727;47.606;19.130;2022-10-16T02:08:48;16.60;70.60
44063;DHT22;29727;47.606;19.130;2022-10-16T02:11:14;16.50;70.60
44063;DHT22;29727;47.606;19.130;2022-10-16T02:13:55;16.50;70.60
44063;DHT22;29727;47.606;19.130;2022-10-16T02:16:33;16.40;70.00
44063;DHT22;29727;47.606;19.130;2022-10-16T02:18:58;16.40;70.50
44063;DHT22;29727;47.606;19.130;2022-10-16T02:21:27;16.40;70.50
44063;DHT22;29727;47.606;19.130;2022-10-16T02:26:52;16.30;70.90
44063;DHT22;29727;47.606;19.130;2022-10-16T02:29:25;16.20;70.80
44063;DHT22;29727;47.606;19.130;2022-10-16T02:31:56;16.20;70.90
44063;DHT22;29727;47.606;19.130;2022-10-16T02:34:25;16.10;70.90
44063;DHT22;29727;47.606;19.130;2022-10-16T02:36:52;16.10;70.90
44063;DHT22;29727;47.606;19.130;2022-10-16T02:39:19;16.00;70.90
44063;DHT22;29727;47.606;19.130;2022-10-16T02:41:46;16.00;71.00
44063;DHT22;29727;47.606;19.130;2022-10-16T02:44:11;16.00;71.00
44063;DHT22;29727;47.606;19.130;2022-10-16T02:46:37;15.90;71.30
44063;DHT22;29727;47.606;19.130;2022-10-16T02:49:02;15.80;71.50
44063;DHT22;29727;47.606;19.130;2022-10-16T02:51:28;15.80;71.60
44063;DHT22;29727;47.606;19.130;2022-10-16T02:53:54;15.70;71.10
44063;DHT22;29727;47.606;19.130;2022-10-16T02:56:20;15.70;72.00
44063;DHT22;29727;47.606;19.130;2022-10-16T02:58:46;15.60;72.00
44063;DHT22;29727;47.606;19.130;2022-10-16T03:01:11;15.60;71.90
44063;DHT22;29727;47.606;19.130;2022-10-16T03:03:38;15.50;71.90
44063;DHT22;29727;47.606;19.130;2022-10-16T03:06:04;15.50;71.80
44063;DHT22;29727;47.606;19.130;2022-10-16T03:08:31;15.50;71.90
44063;DHT22;29727;47.606;19.130;2022-10-16T03:10:56;15.40;72.10
44063;DHT22;29727;47.606;19.130;2022-10-16T03:13:22;15.40;72.30
44063;DHT22;29727;47.606;19.130;2022-10-16T03:15:48;15.30;72.20
44063;DHT22;29727;47.606;19.130;2022-10-16T03:18:14;15.30;72.40
44063;DHT22;29727;47.606;19.130;2022-10-16T03:20:40;15.20;72.40
44063;DHT22;29727;47.606;19.130;2022-10-16T03:23:06;15.20;72.40
44063;DHT22;29727;47.606;19.130;2022-10-16T03:25:33;15.10;72.30
44063;DHT22;29727;47.606;19.130;2022-10-16T03:27:59;15.10;72.20
44063;DHT22;29727;47.606;19.130;2022-10-16T03:30:24;15.00;72.30
44063;DHT22;29727;47.606;19.130;2022-10-16T03:32:50;15.00;72.50
44063;DHT22;29727;47.606;19.130;2022-10-16T03:35:22;14.90;72.50
44063;DHT22;29727;47.606;19.130;2022-10-16T03:37:49;14.90;72.50
44063;DHT22;29727;47.606;19.130;2022-10-16T03:40:15;14.90;72.50
44063;DHT22;29727;47.606;19.130;2022-10-16T03:42:43;14.80;72.40
44063;DHT22;29727;47.606;19.130;2022-10-16T03:45:09;14.80;72.50
44063;DHT22;29727;47.606;19.130;2022-10-16T03:47:35;14.80;72.70
44063;DHT22;29727;47.606;19.130;2022-10-16T03:50:00;14.70;72.20
44063;DHT22;29727;47.606;19.130;2022-10-16T03:52:26;14.60;72.60
44063;DHT22;29727;47.606;19.130;2022-10-16T03:54:52;14.60;71.90
44063;DHT22;29727;47.606;19.130;2022-10-16T03:57:17;14.60;72.50
44063;DHT22;29727;47.606;19.130;2022-10-16T03:59:43;14.50;72.50
44063;DHT22;29727;47.606;19.130;2022-10-16T04:02:09;14.50;72.70
44063;DHT22;29727;47.606;19.130;2022-10-16T04:04:35;14.40;72.60
44063;DHT22;29727;47.606;19.130;2022-10-16T04:07:01;14.40;72.80
44063;DHT22;29727;47.606;19.130;2022-10-16T04:09:26;14.30;72.80
44063;DHT22;29727;47.606;19.130;2022-10-16T04:11:52;14.30;72.50
44063;DHT22;29727;47.606;19.130;2022-10-16T04:14:18;14.30;72.60
44063;DHT22;29727;47.606;19.130;2022-10-16T04:16:44;14.20;72.60
44063;DHT22;29727;47.606;19.130;2022-10-16T04:19:10;14.20;72.80
44063;DHT22;29727;47.606;19.130;2022-10-16T04:21:36;14.10;72.80
44063;DHT22;29727;47.606;19.130;2022-10-16T04:24:03;14.10;72.90
44063;DHT22;29727;47.606;19.130;2022-10-16T04:26:29;14.10;72.90
44063;DHT22;29727;47.606;19.130;2022-10-16T04:28:55;14.00;73.00
44063;DHT22;29727;47.606;19.130;2022-10-16T04:31:21;14.00;73.20
44063;DHT22;29727;47.606;19.130;2022-10-16T04:33:46;14.00;73.80
44063;DHT22;29727;47.606;19.130;2022-10-16T04:36:12;13.90;73.90
44063;DHT22;29727;47.606;19.130;2022-10-16T04:38:39;13.90;73.30
44063;DHT22;29727;47.606;19.130;2022-10-16T04:41:05;13.80;73.40
44063;DHT22;29727;47.606;19.130;2022-10-16T04:43:32;13.80;73.50
44063;DHT22;29727;47.606;19.130;2022-10-16T04:45:57;13.80;73.40
44063;DHT22;29727;47.606;19.130;2022-10-16T04:48:23;13.80;73.80
44063;DHT22;29727;47.606;19.130;2022-10-16T04:50:49;13.70;73.80
44063;DHT22;29727;47.606;19.130;2022-10-16T04:53:14;13.70;73.00
44063;DHT22;29727;47.606;19.130;2022-10-16T04:55:41;13.60;73.60
44063;DHT22;29727;47.606;19.130;2022-10-16T04:58:07;13.60;73.70
44063;DHT22;29727;47.606;19.130;2022-10-16T05:00:33;13.50;73.10
44063;DHT22;29727;47.606;19.130;2022-10-16T05:02:58;13.50;73.60
44063;DHT22;29727;47.606;19.130;2022-10-16T05:05:26;13.50;73.40
44063;DHT22;29727;47.606;19.130;2022-10-16T05:07:52;13.50;73.50
44063;DHT22;29727;47.606;19.130;2022-10-16T05:10:18;13.40;73.70
44063;DHT22;29727;47.606;19.130;2022-10-16T05:12:43;13.40;73.80
44063;DHT22;29727;47.606;19.130;2022-10-16T05:15:09;13.30;73.60
44063;DHT22;29727;47.606;19.130;2022-10-16T05:17:35;13.30;73.60
44063;DHT22;29727;47.606;19.130;2022-10-16T05:20:01;13.30;73.70
44063;DHT22;29727;47.606;19.130;2022-10-16T05:22:27;13.30;73.90
44063;DHT22;29727;47.606;19.130;2022-10-16T05:24:52;13.20;74.00
44063;DHT22;29727;47.606;19.130;2022-10-16T05:27:18;13.20;74.00
44063;DHT22;29727;47.606;19.130;2022-10-16T05:29:48;13.20;74.70
44063;DHT22;29727;47.606;19.130;2022-10-16T05:32:18;13.20;74.20
44063;DHT22;29727;47.606;19.130;2022-10-16T05:34:44;13.20;74.30
44063;DHT22;29727;47.606;19.130;2022-10-16T05:37:10;13.10;74.30
44063;DHT22;29727;47.606;19.130;2022-10-16T05:39:37;13.10;74.60
44063;DHT22;29727;47.606;19.130;2022-10-16T05:42:04;13.10;74.80
44063;DHT22;29727;47.606;19.130;2022-10-16T05:44:30;13.10;75.00
44063;DHT22;29727;47.606;19.130;2022-10-16T05:46:56;13.10;75.00
44063;DHT22;29727;47.606;19.130;2022-10-16T05:49:21;13.10;74.90
44063;DHT22;29727;47.606;19.130;2022-10-16T05:51:47;13.00;75.30
44063;DHT22;29727;47.606;19.130;2022-10-16T05:54:13;13.00;74.80
44063;DHT22;29727;47.606;19.130;2022-10-16T05:56:38;13.10;76.20
44063;DHT22;29727;47.606;19.130;2022-10-16T05:59:04;13.00;75.70
44063;DHT22;29727;47.606;19.130;2022-10-16T06:01:30;13.10;76.10
44063;DHT22;29727;47.606;19.130;2022-10-16T06:03:57;13.10;75.80
44063;DHT22;29727;47.606;19.130;2022-10-16T06:06:25;13.10;76.40
44063;DHT22;29727;47.606;19.130;2022-10-16T06:08:55;13.00;76.60
44063;DHT22;29727;47.606;19.130;2022-10-16T06:11:24;13.10;76.20
44063;DHT22;29727;47.606;19.130;2022-10-16T06:13:51;13.10;76.80
44063;DHT22;29727;47.606;19.130;2022-10-16T06:16:17;13.10;76.90
44063;DHT22;29727;47.606;19.130;2022-10-16T06:18:43;13.20;77.30
44063;DHT22;29727;47.606;19.130;2022-10-16T06:21:16;13.20;77.40
44063;DHT22;29727;47.606;19.130;2022-10-16T06:23:43;13.20;77.40
44063;DHT22;29727;47.606;19.130;2022-10-16T06:26:13;13.30;77.50
44063;DHT22;29727;47.606;19.130;2022-10-16T06:28:39;13.30;77.50
44063;DHT22;29727;47.606;19.130;2022-10-16T06:31:07;13.30;77.50
44063;DHT22;29727;47.606;19.130;2022-10-16T06:33:33;13.40;77.10
44063;DHT22;29727;47.606;19.130;2022-10-16T06:36:07;13.50;76.90
44063;DHT22;29727;47.606;19.130;2022-10-16T06:38:33;13.50;76.70
44063;DHT22;29727;47.606;19.130;2022-10-16T06:40:59;13.60;76.00
44063;DHT22;29727;47.606;19.130;2022-10-16T06:43:26;13.70;75.90
44063;DHT22;29727;47.606;19.130;2022-10-16T06:45:53;13.80;75.70
44063;DHT22;29727;47.606;19.130;2022-10-16T06:48:19;13.80;75.00
44063;DHT22;29727;47.606;19.130;2022-10-16T06:51:02;13.90;74.40
44063;DHT22;29727;47.606;19.130;2022-10-16T06:53:30;14.10;73.60
44063;DHT22;29727;47.606;19.130;2022-10-16T06:55:56;14.10;74.20
44063;DHT22;29727;47.606;19.130;2022-10-16T06:58:22;14.20;74.30
44063;DHT22;29727;47.606;19.130;2022-10-16T07:00:48;14.30;73.90
44063;DHT22;29727;47.606;19.130;2022-10-16T07:03:14;14.30;73.00
44063;DHT22;29727;47.606;19.130;2022-10-16T07:05:41;14.40;73.70
44063;DHT22;29727;47.606;19.130;2022-10-16T07:08:08;14.50;73.80
44063;DHT22;29727;47.606;19.130;2022-10-16T07:10:34;14.60;71.50
44063;DHT22;29727;47.606;19.130;2022-10-16T07:13:00;14.60;71.10
44063;DHT22;29727;47.606;19.130;2022-10-16T07:15:26;14.70;71.10
44063;DHT22;29727;47.606;19.130;2022-10-16T07:17:52;14.80;70.40
44063;DHT22;29727;47.606;19.130;2022-10-16T07:20:18;14.80;70.30
44063;DHT22;29727;47.606;19.130;2022-10-16T07:22:43;14.90;70.30
44063;DHT22;29727;47.606;19.130;2022-10-16T07:25:09;14.90;70.30
44063;DHT22;29727;47.606;19.130;2022-10-16T07:27:35;15.10;70.00
44063;DHT22;29727;47.606;19.130;2022-10-16T07:30:01;15.10;69.10
44063;DHT22;29727;47.606;19.130;2022-10-16T07:32:26;15.20;69.40
44063;DHT22;29727;47.606;19.130;2022-10-16T07:34:53;15.30;69.60
44063;DHT22;29727;47.606;19.130;2022-10-16T07:37:18;15.30;69.00
44063;DHT22;29727;47.606;19.130;2022-10-16T07:39:44;15.40;69.20
44063;DHT22;29727;47.606;19.130;2022-10-16T07:42:10;15.40;68.90
44063;DHT22;29727;47.606;19.130;2022-10-16T07:44:36;15.50;67.20
44063;DHT22;29727;47.606;19.130;2022-10-16T07:47:01;15.60;67.00
44063;DHT22;29727;47.606;19.130;2022-10-16T07:49:27;15.60;67.20
44063;DHT22;29727;47.606;19.130;2022-10-16T07:51:53;15.70;67.00
44063;DHT22;29727;47.606;19.130;2022-10-16T07:54:18;15.70;66.80
44063;DHT22;29727;47.606;19.130;2022-10-16T07:56:44;15.80;67.40
44063;DHT22;29727;47.606;19.130;2022-10-16T07:59:10;15.80;68.10
44063;DHT22;29727;47.606;19.130;2022-10-16T08:01:35;15.90;67.30
44063;DHT22;29727;47.606;19.130;2022-10-16T08:04:01;16.00;68.40
44063;DHT22;29727;47.606;19.130;2022-10-16T08:06:26;16.10;67.90
44063;DHT22;29727;47.606;19.130;2022-10-16T08:08:52;16.10;66.60
44063;DHT22;29727;47.606;19.130;2022-10-16T08:11:18;16.20;66.00
44063;DHT22;29727;47.606;19.130;2022-10-16T08:13:44;16.20;66.10
44063;DHT22;29727;47.606;19.130;2022-10-16T08:16:10;16.30;66.60
44063;DHT22;29727;47.606;19.130;2022-10-16T08:18:37;16.40;66.40
44063;DHT22;29727;47.606;19.130;2022-10-16T08:21:05;16.40;66.40
44063;DHT22;29727;47.606;19.130;2022-10-16T08:23:31;16.50;65.50
44063;DHT22;29727;47.606;19.130;2022-10-16T08:26:03;16.60;65.20
44063;DHT22;29727;47.606;19.130;2022-10-16T08:28:29;16.70;64.90
44063;DHT22;29727;47.606;19.130;2022-10-16T08:30:55;16.80;64.80
44063;DHT22;29727;47.606;19.130;2022-10-16T08:33:22;16.90;64.80
44063;DHT22;29727;47.606;19.130;2022-10-16T08:35:54;16.90;64.60
44063;DHT22;29727;47.606;19.130;2022-10-16T08:38:20;17.00;63.90
44063;DHT22;29727;47.606;19.130;2022-10-16T08:40:46;17.10;64.40
44063;DHT22;29727;47.606;19.130;2022-10-16T08:48:47;17.30;64.10
44063;DHT22;29727;47.606;19.130;2022-10-16T08:51:24;17.30;64.30
44063;DHT22;29727;47.606;19.130;2022-10-16T08:53:54;17.50;63.20
44063;DHT22;29727;47.606;19.130;2022-10-16T08:56:21;17.50;63.70
44063;DHT22;29727;47.606;19.130;2022-10-16T08:58:48;17.60;63.10
44063;DHT22;29727;47.606;19.130;2022-10-16T09:01:16;17.70;62.50
44063;DHT22;29727;47.606;19.130;2022-10-16T09:09:53;18.00;61.50
44063;DHT22;29727;47.606;19.130;2022-10-16T09:12:25;18.10;61.80
44063;DHT22;29727;47.606;19.130;2022-10-16T09:15:31;18.20;61.00
44063;DHT22;29727;47.606;19.130;2022-10-16T09:18:12;18.30;61.10
44063;DHT22;29727;47.606;19.130;2022-10-16T09:21:26;18.50;60.60
44063;DHT22;29727;47.606;19.130;2022-10-16T09:23:54;18.50;61.40
44063;DHT22;29727;47.606;19.130;2022-10-16T09:26:22;18.50;61.00
44063;DHT22;29727;47.606;19.130;2022-10-16T09:28:48;18.60;59.60
44063;DHT22;29727;47.606;19.130;2022-10-16T09:31:16;18.70;60.90
44063;DHT22;29727;47.606;19.130;2022-10-16T09:33:44;18.80;59.80
44063;DHT22;29727;47.606;19.130;2022-10-16T09:36:11;18.90;60.60
44063;DHT22;29727;47.606;19.130;2022-10-16T09:38:38;19.00;59.80
44063;DHT22;29727;47.606;19.130;2022-10-16T09:43:57;19.10;58.20
44063;DHT22;29727;47.606;19.130;2022-10-16T09:46:31;19.20;58.10
44063;DHT22;29727;47.606;19.130;2022-10-16T09:49:00;19.30;57.80
44063;DHT22;29727;47.606;19.130;2022-10-16T09:56:36;19.50;59.50
44063;DHT22;29727;47.606;19.130;2022-10-16T09:59:12;19.60;57.00
44063;DHT22;29727;47.606;19.130;2022-10-16T10:01:40;19.70;56.30
44063;DHT22;29727;47.606;19.130;2022-10-16T10:04:07;19.80;56.40
44063;DHT22;29727;47.606;19.130;2022-10-16T10:06:36;19.90;57.30
44063;DHT22;29727;47.606;19.130;2022-10-16T10:11:56;20.10;56.90
44063;DHT22;29727;47.606;19.130;2022-10-16T10:14:35;20.20;56.30
44063;DHT22;29727;47.606;19.130;2022-10-16T10:19:47;20.50;56.20
44063;DHT22;29727;47.606;19.130;2022-10-16T10:22:18;20.60;55.40
44063;DHT22;29727;47.606;19.130;2022-10-16T10:24:55;20.70;55.90
44063;DHT22;29727;47.606;19.130;2022-10-16T10:27:30;20.80;54.70
44063;DHT22;29727;47.606;19.130;2022-10-16T10:30:22;20.90;55.20
44063;DHT22;29727;47.606;19.130;2022-10-16T10:41:27;21.30;54.40
44063;DHT22;29727;47.606;19.130;2022-10-16T10:46:55;21.50;53.60
44063;DHT22;29727;47.606;19.130;2022-10-16T11:06:20;22.00;53.30
44063;DHT22;29727;47.606;19.130;2022-10-16T11:08:51;22.10;53.80
44063;DHT22;29727;47.606;19.130;2022-10-16T11:11:35;22.20;52.70
44063;DHT22;29727;47.606;19.130;2022-10-16T11:14:11;22.30;52.60
44063;DHT22;29727;47.606;19.130;2022-10-16T11:25:00;22.50;53.20
44063;DHT22;29727;47.606;19.130;2022-10-16T11:27:40;22.60;51.30
44063;DHT22;29727;47.606;19.130;2022-10-16T11:30:33;22.70;52.50
44063;DHT22;29727;47.606;19.130;2022-10-16T11:35:56;22.90;49.50
44063;DHT22;29727;47.606;19.130;2022-10-16T11:38:31;23.00;49.50
44063;DHT22;29727;47.606;19.130;2022-10-16T11:46:31;23.20;49.20
44063;DHT22;29727;47.606;19.130;2022-10-16T11:49:18;23.20;50.00
44063;DHT22;29727;47.606;19.130;2022-10-16T11:51:54;23.30;50.30
44063;DHT22;29727;47.606;19.130;2022-10-16T11:54:28;23.40;47.90
44063;DHT22;29727;47.606;19.130;2022-10-16T11:57:02;23.50;49.40
44063;DHT22;29727;47.606;19.130;2022-10-16T11:59:38;23.60;48.50
44063;DHT22;29727;47.606;19.130;2022-10-16T12:04:59;23.60;48.40
44063;DHT22;29727;47.606;19.130;2022-10-16T12:07:39;23.70;48.30
44063;DHT22;29727;47.606;19.130;2022-10-16T12:10:26;23.60;48.00
44063;DHT22;29727;47.606;19.130;2022-10-16T12:12:53;23.60;48.70
44063;DHT22;29727;47.606;19.130;2022-10-16T12:17:46;23.60;47.90
44063;DHT22;29727;47.606;19.130;2022-10-16T12:22:48;23.70;48.70
44063;DHT22;29727;47.606;19.130;2022-10-16T12:28:05;23.80;48.30
44063;DHT22;29727;47.606;19.130;2022-10-16T12:30:36;24.00;47.80
44063;DHT22;29727;47.606;19.130;2022-10-16T12:35:48;24.10;46.70
44063;DHT22;29727;47.606;19.130;2022-10-16T12:38:27;24.10;47.20
44063;DHT22;29727;47.606;19.130;2022-10-16T12:41:02;24.10;47.50
44063;DHT22;29727;47.606;19.130;2022-10-16T12:43:36;24.10;46.00
44063;DHT22;29727;47.606;19.130;2022-10-16T12:48:37;24.20;47.20
44063;DHT22;29727;47.606;19.130;2022-10-16T13:02:16;24.60;45.50
44063;DHT22;29727;47.606;19.130;2022-10-16T13:05:11;24.60;45.70
44063;DHT22;29727;47.606;19.130;2022-10-16T13:10:17;24.70;46.10
44063;DHT22;29727;47.606;19.130;2022-10-16T13:16:11;24.70;45.60
44063;DHT22;29727;47.606;19.130;2022-10-16T13:19:00;24.60;46.60
44063;DHT22;29727;47.606;19.130;2022-10-16T13:26:49;24.60;46.20
44063;DHT22;29727;47.606;19.130;2022-10-16T13:29:18;24.60;46.80
44063;DHT22;29727;47.606;19.130;2022-10-16T13:31:45;24.70;46.80
44063;DHT22;29727;47.606;19.130;2022-10-16T13:34:16;24.80;45.10
44063;DHT22;29727;47.606;19.130;2022-10-16T13:36:49;24.90;46.10
44063;DHT22;29727;47.606;19.130;2022-10-16T13:39:25;25.00;45.40
44063;DHT22;29727;47.606;19.130;2022-10-16T13:42:01;25.00;45.70
44063;DHT22;29727;47.606;19.130;2022-10-16T13:44:33;25.00;46.20
44063;DHT22;29727;47.606;19.130;2022-10-16T13:47:01;25.00;45.40
44063;DHT22;29727;47.606;19.130;2022-10-16T13:49:27;25.10;44.60
44063;DHT22;29727;47.606;19.130;2022-10-16T13:54:25;25.00;43.40
44063;DHT22;29727;47.606;19.130;2022-10-16T13:56:51;24.90;44.30
44063;DHT22;29727;47.606;19.130;2022-10-16T13:59:26;24.80;44.90
44063;DHT22;29727;47.606;19.130;2022-10-16T14:01:55;24.60;43.80
44063;DHT22;29727;47.606;19.130;2022-10-16T14:04:22;24.60;44.40
44063;DHT22;29727;47.606;19.130;2022-10-16T14:06:50;24.50;44.40
44063;DHT22;29727;47.606;19.130;2022-10-16T14:09:24;24.40;44.60
44063;DHT22;29727;47.606;19.130;2022-10-16T14:12:00;24.30;45.60
44063;DHT22;29727;47.606;19.130;2022-10-16T14:14:42;24.20;46.50
44063;DHT22;29727;47.606;19.130;2022-10-16T14:17:18;24.10;44.90
44063;DHT22;29727;47.606;19.130;2022-10-16T14:19:50;24.00;45.70
44063;DHT22;29727;47.606;19.130;2022-10-16T14:22:40;24.00;45.80
44063;DHT22;29727;47.606;19.130;2022-10-16T14:28:15;23.70;46.10
44063;DHT22;29727;47.606;19.130;2022-10-16T14:33:33;23.60;47.60
44063;DHT22;29727;47.606;19.130;2022-10-16T14:36:03;23.50;47.00
44063;DHT22;29727;47.606;19.130;2022-10-16T14:38:30;23.50;45.50
44063;DHT22;29727;47.606;19.130;2022-10-16T14:40:58;23.40;46.40
44063;DHT22;29727;47.606;19.130;2022-10-16T14:43:35;23.30;45.50
44063;DHT22;29727;47.606;19.130;2022-10-16T14:46:05;23.30;46.00
44063;DHT22;29727;47.606;19.130;2022-10-16T14:48:32;23.20;46.20
44063;DHT22;29727;47.606;19.130;2022-10-16T14:50:58;23.20;47.00
44063;DHT22;29727;47.606;19.130;2022-10-16T14:53:23;23.10;46.80
44063;DHT22;29727;47.606;19.130;2022-10-16T14:55:49;23.10;47.60
44063;DHT22;29727;47.606;19.130;2022-10-16T14:58:19;23.00;47.40
44063;DHT22;29727;47.606;19.130;2022-10-16T15:00:45;23.00;47.50
44063;DHT22;29727;47.606;19.130;2022-10-16T15:03:11;22.90;48.00
44063;DHT22;29727;47.606;19.130;2022-10-16T15:05:37;22.80;48.50
44063;DHT22;29727;47.606;19.130;2022-10-16T15:08:02;22.80;49.00
44063;DHT22;29727;47.606;19.130;2022-10-16T15:10:30;22.80;48.90
44063;DHT22;29727;47.606;19.130;2022-10-16T15:12:57;22.80;48.30
44063;DHT22;29727;47.606;19.130;2022-10-16T15:17:52;22.70;48.90
44063;DHT22;29727;47.606;19.130;2022-10-16T15:20:20;22.60;48.90
44063;DHT22;29727;47.606;19.130;2022-10-16T15:22:46;22.60;49.70
44063;DHT22;29727;47.606;19.130;2022-10-16T15:28:02;22.50;50.60
44063;DHT22;29727;47.606;19.130;2022-10-16T15:30:28;22.40;50.60
44063;DHT22;29727;47.606;19.130;2022-10-16T15:32:54;22.40;51.20
44063;DHT22;29727;47.606;19.130;2022-10-16T15:35:20;22.40;51.90
44063;DHT22;29727;47.606;19.130;2022-10-16T15:37:47;22.30;52.70
44063;DHT22;29727;47.606;19.130;2022-10-16T15:40:13;22.20;53.50
44063;DHT22;29727;47.606;19.130;2022-10-16T15:42:39;22.20;54.00
44063;DHT22;29727;47.606;19.130;2022-10-16T15:45:05;22.10;54.40
44063;DHT22;29727;47.606;19.130;2022-10-16T15:47:32;22.00;54.70
44063;DHT22;29727;47.606;19.130;2022-10-16T15:49:58;21.10;54.00
44063;DHT22;29727;47.606;19.130;2022-10-16T15:52:24;21.80;55.30
44063;DHT22;29727;47.606;19.130;2022-10-16T15:54:49;21.70;55.80
44063;DHT22;29727;47.606;19.130;2022-10-16T15:57:15;21.70;55.60
44063;DHT22;29727;47.606;19.130;2022-10-16T15:59:40;21.60;56.40
44063;DHT22;29727;47.606;19.130;2022-10-16T16:02:08;21.60;56.30
44063;DHT22;29727;47.606;19.130;2022-10-16T16:04:34;21.50;56.70
44063;DHT22;29727;47.606;19.130;2022-10-16T16:07:00;21.40;57.20
44063;DHT22;29727;47.606;19.130;2022-10-16T16:09:28;21.30;57.80
44063;DHT22;29727;47.606;19.130;2022-10-16T16:11:54;21.20;57.90
44063;DHT22;29727;47.606;19.130;2022-10-16T16:14:19;21.10;57.60
44063;DHT22;29727;47.606;19.130;2022-10-16T16:16:46;21.00;58.30
44063;DHT22;29727;47.606;19.130;2022-10-16T16:19:11;20.90;58.70
44063;DHT22;29727;47.606;19.130;2022-10-16T16:21:38;20.80;58.80
44063;DHT22;29727;47.606;19.130;2022-10-16T16:24:03;20.70;59.10
44063;DHT22;29727;47.606;19.130;2022-10-16T16:26:34;20.60;59.30
44063;DHT22;29727;47.606;19.130;2022-10-16T16:29:03;20.60;59.60
44063;DHT22;29727;47.606;19.130;2022-10-16T16:33:56;20.40;59.30
44063;DHT22;29727;47.606;19.130;2022-10-16T16:36:23;20.20;59.90
44063;DHT22;29727;47.606;19.130;2022-10-16T16:38:49;20.20;60.20
44063;DHT22;29727;47.606;19.130;2022-10-16T16:41:18;20.10;60.60
44063;DHT22;29727;47.606;19.130;2022-10-16T16:43:44;20.00;60.60
44063;DHT22;29727;47.606;19.130;2022-10-16T16:46:11;19.90;61.20
44063;DHT22;29727;47.606;19.130;2022-10-16T16:48:37;19.90;61.10
44063;DHT22;29727;47.606;19.130;2022-10-16T16:51:07;19.80;61.30
44063;DHT22;29727;47.606;19.130;2022-10-16T16:53:34;19.60;61.10
44063;DHT22;29727;47.606;19.130;2022-10-16T16:56:03;19.60;61.60
44063;DHT22;29727;47.606;19.130;2022-10-16T16:58:30;19.40;62.10
44063;DHT22;29727;47.606;19.130;2022-10-16T17:00:56;19.40;62.60
44063;DHT22;29727;47.606;19.130;2022-10-16T17:03:26;19.40;62.90
44063;DHT22;29727;47.606;19.130;2022-10-16T17:06:00;19.20;62.60
44063;DHT22;29727;47.606;19.130;2022-10-16T17:08:26;19.20;63.20
44063;DHT22;29727;47.606;19.130;2022-10-16T17:10:53;19.10;63.20
44063;DHT22;29727;47.606;19.130;2022-10-16T17:13:25;19.10;63.60
44063;DHT22;29727;47.606;19.130;2022-10-16T17:15:52;19.00;63.70
44063;DHT22;29727;47.606;19.130;2022-10-16T17:20:45;18.80;63.10
44063;DHT22;29727;47.606;19.130;2022-10-16T17:23:11;18.80;63.80
44063;DHT22;29727;47.606;19.130;2022-10-16T17:25:38;18.70;64.00
44063;DHT22;29727;47.606;19.130;2022-10-16T17:28:04;18.60;63.90
44063;DHT22;29727;47.606;19.130;2022-10-16T17:30:31;18.60;64.70
44063;DHT22;29727;47.606;19.130;2022-10-16T17:33:00;18.50;64.70
44063;DHT22;29727;47.606;19.130;2022-10-16T17:35:26;18.50;64.90
44063;DHT22;29727;47.606;19.130;2022-10-16T17:37:52;18.40;65.50
44063;DHT22;29727;47.606;19.130;2022-10-16T17:40:18;18.30;65.10
44063;DHT22;29727;47.606;19.130;2022-10-16T17:42:44;18.30;65.10
44063;DHT22;29727;47.606;19.130;2022-10-16T17:45:10;18.20;65.20
44063;DHT22;29727;47.606;19.130;2022-10-16T17:47:35;18.20;65.70
44063;DHT22;29727;47.606;19.130;2022-10-16T17:50:03;18.10;65.60
44063;DHT22;29727;47.606;19.130;2022-10-16T17:52:29;18.00;65.00
44063;DHT22;29727;47.606;19.130;2022-10-16T17:54:54;18.00;65.50
44063;DHT22;29727;47.606;19.130;2022-10-16T17:57:21;18.00;65.10